DELGM EDDN-EDDN

Flight info

Callsign DELGM
Flight time N/A
Altitude 4000
Route ERL2G ERL
Aircraft PA24/L-SDGRY/S

Departure

Time 2026-04-27 13:20
Airport Nuremberg Airport (EDDN)

Arrival

Time N/A
Airport Nuremberg Airport (EDDN)
Time Latitude Longitude Altitude Speed Heading
2026-04-27 12:45 49.49482 11.06970 1020 ft 0 kts 106°
2026-04-27 13:09 49.49482 11.06971 1020 ft 0 kts 106°
2026-04-27 13:09 49.49482 11.06970 1020 ft 0 kts 106°
2026-04-27 13:13 49.49482 11.06972 1020 ft 2 kts 103°
2026-04-27 13:13 49.49500 11.06960 1020 ft 8 kts 297°
2026-04-27 13:13 49.49522 11.06979 1019 ft 11 kts 102°
2026-04-27 13:14 49.49507 11.07137 1019 ft 15 kts 97°
2026-04-27 13:14 49.49540 11.07199 1020 ft 9 kts
2026-04-27 13:14 49.49624 11.07218 1021 ft 9 kts 11°
2026-04-27 13:14 49.49629 11.07334 1021 ft 17 kts 98°
2026-04-27 13:15 49.49608 11.07550 1023 ft 24 kts 99°
2026-04-27 13:15 49.49579 11.07822 1024 ft 27 kts 96°
2026-04-27 13:15 49.49551 11.08125 1024 ft 27 kts 98°
2026-04-27 13:15 49.49535 11.08329 1027 ft 11 kts 66°
2026-04-27 13:16 49.49616 11.08385 1025 ft 13 kts 52°
2026-04-27 13:16 49.49683 11.08525 1025 ft 14 kts 49°
2026-04-27 13:16 49.49703 11.08551 1025 ft 0 kts 27°
2026-04-27 13:18 49.49774 11.08552 1023 ft 18 kts 328°
2026-04-27 13:18 49.49811 11.08430 1024 ft 8 kts 282°
2026-04-27 13:19 49.49832 11.08208 1023 ft 47 kts 278°
2026-04-27 13:19 49.49898 11.07508 1050 ft 80 kts 279°
2026-04-27 13:19 49.50003 11.06671 1263 ft 79 kts 283°
2026-04-27 13:19 49.50117 11.05828 1475 ft 83 kts 281°
2026-04-27 13:20 49.50157 11.04945 1710 ft 84 kts 249°
2026-04-27 13:20 49.49631 11.04480 1885 ft 96 kts 195°
2026-04-27 13:20 49.48927 11.04335 2045 ft 104 kts 189°
2026-04-27 13:20 49.48239 11.04594 2069 ft 114 kts 137°
2026-04-27 13:21 49.48018 11.05690 2140 ft 109 kts 91°
2026-04-27 13:21 49.47988 11.06836 2167 ft 106 kts 94°
2026-04-27 13:21 49.47883 11.07958 2163 ft 107 kts 99°
2026-04-27 13:21 49.47730 11.09077 2127 ft 106 kts 98°
2026-04-27 13:22 49.47630 11.10216 2038 ft 107 kts 92°
2026-04-27 13:22 49.47706 11.11378 1908 ft 112 kts 68°
2026-04-27 13:22 49.48212 11.12256 1792 ft 112 kts 28°
2026-04-27 13:22 49.48932 11.12604 1739 ft 107 kts 359°
2026-04-27 13:23 49.49490 11.12082 1579 ft 89 kts 285°
2026-04-27 13:23 49.49543 11.11186 1405 ft 80 kts 278°
2026-04-27 13:23 49.49632 11.10348 1276 ft 80 kts 277°
2026-04-27 13:23 49.49702 11.09538 1120 ft 71 kts 280°
2026-04-27 13:24 49.49767 11.08849 1029 ft 64 kts 280°
2026-04-27 13:24 49.49835 11.08174 1023 ft 61 kts 281°
2026-04-27 13:24 49.49889 11.07582 1026 ft 67 kts 278°
2026-04-27 13:24 49.49980 11.06843 1196 ft 68 kts 278°
2026-04-27 13:25 49.49815 11.06198 1408 ft 71 kts 230°
2026-04-27 13:25 49.49343 11.05864 1574 ft 84 kts 200°
2026-04-27 13:25 49.48722 11.05653 1697 ft 94 kts 194°
2026-04-27 13:25 49.48081 11.05625 1878 ft 95 kts 161°
2026-04-27 13:26 49.47595 11.06292 2057 ft 94 kts 114°
2026-04-27 13:26 49.47507 11.07291 2116 ft 96 kts 94°
2026-04-27 13:26 49.47465 11.08304 2186 ft 94 kts 89°
2026-04-27 13:26 49.47458 11.09327 2203 ft 97 kts 86°
2026-04-27 13:27 49.47712 11.10260 2058 ft 96 kts 41°
2026-04-27 13:27 49.48302 11.10635 1802 ft 92 kts
2026-04-27 13:27 49.48881 11.10698 1587 ft 80 kts 358°
2026-04-27 13:27 49.49409 11.10545 1377 ft 80 kts 326°
2026-04-27 13:28 49.49672 11.09845 1147 ft 77 kts 273°
2026-04-27 13:28 49.49741 11.09122 1036 ft 60 kts 278°
2026-04-27 13:28 49.49800 11.08497 1026 ft 70 kts 278°
2026-04-27 13:28 49.49875 11.07763 1188 ft 67 kts 274°
2026-04-27 13:29 49.49820 11.07088 1389 ft 67 kts 225°
2026-04-27 13:29 49.49326 11.06861 1528 ft 85 kts 184°
2026-04-27 13:29 49.48683 11.06871 1697 ft 95 kts 180°
2026-04-27 13:29 49.48026 11.06943 1876 ft 94 kts 173°
2026-04-27 13:30 49.47610 11.07598 2007 ft 93 kts 94°
2026-04-27 13:30 49.47543 11.08638 2066 ft 100 kts 93°
2026-04-27 13:30 49.47507 11.09735 2089 ft 104 kts 87°
2026-04-27 13:30 49.47516 11.10828 2165 ft 103 kts 87°
2026-04-27 13:31 49.47521 11.11927 2257 ft 100 kts 86°
2026-04-27 13:31 49.47774 11.12849 2245 ft 94 kts 33°
2026-04-27 13:31 49.48420 11.13098 2174 ft 95 kts
2026-04-27 13:31 49.49048 11.13006 2056 ft 82 kts 326°
2026-04-27 13:32 49.49362 11.12287 1694 ft 82 kts 292°
2026-04-27 13:32 49.49512 11.11457 1421 ft 78 kts 280°
2026-04-27 13:32 49.49596 11.10620 1276 ft 80 kts 278°
2026-04-27 13:32 49.49680 11.09765 1133 ft 81 kts 277°
2026-04-27 13:33 49.49759 11.08971 1034 ft 67 kts 276°
2026-04-27 13:33 49.49815 11.08375 1024 ft 53 kts 277°
2026-04-27 13:33 49.49890 11.07670 1079 ft 71 kts 277°
2026-04-27 13:33 49.49953 11.06936 1223 ft 69 kts 273°
2026-04-27 13:34 49.50009 11.06184 1390 ft 72 kts 275°
2026-04-27 13:34 49.50054 11.05432 1588 ft 71 kts 274°
2026-04-27 13:34 49.49845 11.04773 1723 ft 82 kts 208°
2026-04-27 13:34 49.49245 11.04488 1827 ft 98 kts 205°
2026-04-27 13:35 49.48593 11.04054 1960 ft 104 kts 205°
2026-04-27 13:35 49.47928 11.03583 2087 ft 106 kts 206°
2026-04-27 13:35 49.47272 11.03071 2221 ft 104 kts 209°
2026-04-27 13:35 49.46640 11.02519 2356 ft 106 kts 210°
2026-04-27 13:36 49.45964 11.01968 2409 ft 112 kts 207°
2026-04-27 13:36 49.45271 11.01418 2563 ft 110 kts 207°
2026-04-27 13:36 49.44580 11.00984 2685 ft 110 kts 201°
2026-04-27 13:36 49.43862 11.00557 2787 ft 111 kts 207°
2026-04-27 13:37 49.43206 10.99954 2913 ft 108 kts 211°